VGEG - VQPR

Guest
Details From VGEG - SHAH AMANAT INTL
To VQPR - PARO
Flight Number -
Tags generated
Created
Modified
Stats Distance 357 nm / 661 km
Max Altitude 34,700 ft / 10,577 m
Waypoints 9
Social Downloads 1
Likes 0
Share VATSIM

Download

Looking for another format? Having issues loading an existing format? Contact us
Advertisement - Login to hide

Notes

Basic altitude profile: - Ascent Rate: 1800ft/min - Ascent Speed: 240kts - Cruise Altitude: 25000ft - Cruise Speed: 250kts - Descent Rate: 1800ft/min - Descent Speed: 240kts Options: - Use NATs: yes - Use PACOTS: yes - Use low airways: yes - Use high airways: yes

Route

VGEG ONEKA G463 OLPAS W12 LALMT VQPR

ID Type Via Altitude Latitude Longitude Leg Dist Tot Dist Heading (true) Name
O VGEG APT - 0 ft / 0 m 22.24961˚ 91.81329˚ - 0 nm - SHAH AMANAT INTL
ONEKA FIX - 8,900 ft / 2,713 m 22.58000˚ 91.53722˚ 25 nm 25 nm 322° / 322° -
DAC75 FIX G463 (AWY-LO) 16,900 ft / 5,151 m 22.86743˚ 91.28030˚ 22 nm 47 nm 321° / 320° -
ADMIL FIX G463 (AWY-LO) 24,700 ft / 7,529 m 23.18083˚ 90.99056˚ 24 nm 72 nm 320° / 320° -
KANDI FIX G463 (AWY-HI) 34,700 ft / 10,577 m 23.50361˚ 90.70139˚ 25 nm 97 nm 321° / 321° -
DAC VOR G463 (AWY-HI) 34,000 ft / 10,363 m 23.82468˚ 90.41260˚ 24 nm 122 nm 321° / 320° DHAKA VOR-DME
OLPAS FIX G463 (AWY-HI) 34,000 ft / 10,363 m 23.95889˚ 90.00139˚ 23 nm 146 nm 290° / 290° -
LALMT FIX W12 (AWY-HI) 18,500 ft / 5,639 m 25.88764˚ 89.43139˚ 119 nm 266 nm 345° / 345° -
O VQPR APT - 0 ft / 0 m 27.40319˚ 89.42461˚ 91 nm 357 nm 360° / 360° PARO

Altitude Profile

Weather

Temperature
Clouds and Precipitation
Forecast for 2016-12-03 06:00 UTC. Updated an hour ago
Winds

VGEG

Details ICAO VGEG (CGP)
Name SHAH AMANAT INTL
Region Bangladesh
Timezone Asia/Dhaka (UTC+6.0)
Stats Elevation 12 ft / 4 m (AMSL)
Location 22.249610° 91.813286°
Runways 1
Magnetic Variation 0.435° W

METAR

VGEG 030400Z 00000KT 4000 HZ NSC 26/16 Q1016 NOSIG

Decode

TAF

Not found

Departure Runways

ID Width Length Bearing (true) Bearing (mag) Surface Threshold Offset Overrun Length
05 150 ft / 46 m 9,633 ft / 2,936 m 48.21° 48.64° Asphalt 0 ft / 0 m 200 ft / 61 m
23 150 ft / 46 m 9,633 ft / 2,936 m 228.21° 228.64° Asphalt 0 ft / 0 m 1,194 ft / 364 m

VQPR

Details ICAO VQPR (PBH)
Name PARO
Region Bhutan
Timezone Asia/Thimphu (UTC+6.0)
Stats Elevation 7,332 ft / 2,235 m (AMSL)
Location 27.403190° 89.424605°
Runways 1
Magnetic Variation 0.083° E

METAR

VQPR 030300Z VRB02KT 9999 SCT040 07/00 Q1030 NOSIG

Decode

TAF

Not found

Destination Runways

ID Width Length Bearing (true) Bearing (mag) Surface Threshold Offset Overrun Length
15 95 ft / 29 m 6,462 ft / 1,970 m 150.65° 150.57° Asphalt 0 ft / 0 m 390 ft / 119 m
33 95 ft / 29 m 6,462 ft / 1,970 m 330.65° 330.57° Asphalt 0 ft / 0 m 217 ft / 66 m

Popular Alternatives